createdAt,value
2017-08-10T00:02:09.253Z,13.77
2017-08-10T00:04:36.725Z,13.03
2017-08-10T00:07:04.196Z,14.80
2017-08-10T00:09:31.704Z,19.50
2017-08-10T00:11:59.942Z,13.50
2017-08-10T00:14:27.417Z,15.30
2017-08-10T00:16:54.916Z,12.37
2017-08-10T00:19:22.398Z,17.90
2017-08-10T00:21:49.873Z,14.60
2017-08-10T00:24:17.364Z,13.03
2017-08-10T00:26:45.609Z,15.47
2017-08-10T00:29:13.085Z,15.30
2017-08-10T00:31:40.586Z,16.33
2017-08-10T00:34:08.065Z,16.03
2017-08-10T00:36:35.541Z,19.13
2017-08-10T00:39:03.436Z,15.47
2017-08-10T00:41:31.689Z,18.03
2017-08-10T00:43:59.169Z,14.53
2017-08-10T00:46:26.694Z,16.50
2017-08-10T00:48:54.174Z,16.37
2017-08-10T00:51:21.649Z,23.57
2017-08-10T00:53:49.173Z,21.57
2017-08-10T00:56:16.656Z,19.43
2017-08-10T00:58:44.925Z,19.03
2017-08-10T01:01:13.198Z,17.30
2017-08-10T01:03:42.029Z,17.10
2017-08-10T01:19:07.086Z,20.30
2017-08-10T01:21:34.693Z,17.57
2017-08-10T01:24:02.173Z,24.87
2017-08-10T01:26:29.668Z,16.20
2017-08-10T01:28:57.461Z,17.60
2017-08-10T01:31:24.940Z,19.70
2017-08-10T01:33:52.437Z,17.27
2017-08-10T01:36:20.681Z,21.27
2017-08-10T01:38:48.152Z,19.43
2017-08-10T01:41:16.024Z,19.07
2017-08-10T01:43:44.265Z,19.93
2017-08-10T01:46:11.834Z,18.90
2017-08-10T01:48:39.333Z,18.67
2017-08-10T01:51:07.572Z,19.70
2017-08-10T01:53:35.045Z,17.93
2017-08-10T01:56:02.541Z,19.40
2017-08-10T01:58:30.017Z,20.00
2017-08-10T02:00:57.576Z,21.47
2017-08-10T02:03:25.165Z,17.47
2017-08-10T02:05:52.641Z,20.47
2017-08-10T02:08:20.893Z,18.87
2017-08-10T02:10:48.393Z,17.07
2017-08-10T02:13:15.872Z,21.53
2017-08-10T02:15:43.353Z,22.53
2017-08-10T02:18:11.107Z,21.60
2017-08-10T02:20:38.585Z,20.87
2017-08-10T02:23:06.057Z,21.97
2017-08-10T02:25:33.557Z,19.80
2017-08-10T02:28:01.032Z,21.27
2017-08-10T02:30:28.794Z,19.03
2017-08-10T02:32:56.557Z,20.27
2017-08-10T02:35:24.048Z,20.67
2017-08-10T02:37:51.527Z,21.73
2017-08-10T02:40:19.793Z,20.10
2017-08-10T02:42:47.265Z,19.43
2017-08-10T02:45:15.513Z,21.20
2017-08-10T02:47:43.009Z,20.90
2017-08-10T02:50:10.489Z,20.13
2017-08-10T02:52:37.969Z,23.53
2017-08-10T02:55:05.469Z,22.53
2017-08-10T02:57:33.714Z,22.83
2017-08-10T03:00:01.973Z,21.00
2017-08-10T03:02:29.470Z,22.70
2017-08-10T03:04:57.713Z,21.80
2017-08-10T03:07:25.200Z,24.50
2017-08-10T03:09:53.461Z,23.80
2017-08-10T03:12:20.937Z,26.00
2017-08-10T03:14:49.181Z,22.63
2017-08-10T03:17:16.685Z,24.97
2017-08-10T03:19:44.165Z,21.60
2017-08-10T03:22:11.641Z,22.70
2017-08-10T03:24:39.137Z,26.90
2017-08-10T03:27:07.378Z,20.80
2017-08-10T03:29:34.854Z,24.03
2017-08-10T03:32:02.349Z,20.23
2017-08-10T03:34:29.822Z,22.00
2017-08-10T03:36:57.297Z,20.87
2017-08-10T03:39:24.796Z,16.77
2017-08-10T03:41:53.039Z,22.03
2017-08-10T03:44:20.785Z,21.63
2017-08-10T03:46:48.276Z,22.93
2017-08-10T03:49:15.753Z,21.60
2017-08-10T03:51:43.997Z,18.33
2017-08-10T03:54:11.492Z,16.77
2017-08-10T03:56:39.733Z,26.37
2017-08-10T03:59:07.210Z,21.87
2017-08-10T04:01:34.710Z,21.40
2017-08-10T04:04:02.201Z,20.20
2017-08-10T04:06:29.677Z,14.93
2017-08-10T04:08:57.168Z,13.80
2017-08-10T04:11:24.642Z,16.07
2017-08-10T04:13:52.116Z,19.10
2017-08-10T04:16:19.621Z,14.60
2017-08-10T04:18:47.861Z,14.40
2017-08-10T04:21:15.341Z,28.00
2017-08-10T04:23:43.058Z,17.10
2017-08-10T04:26:10.529Z,25.33
2017-08-10T04:28:38.005Z,19.67
2017-08-10T04:31:05.893Z,23.03
2017-08-10T04:33:34.145Z,23.50
2017-08-10T04:36:01.622Z,17.53
2017-08-10T04:38:29.886Z,19.00
2017-08-10T04:40:57.357Z,19.73
2017-08-10T04:43:25.600Z,22.90
2017-08-10T04:45:53.110Z,16.67
2017-08-10T04:48:20.589Z,18.07
2017-08-10T04:50:48.064Z,15.40
2017-08-10T04:53:15.560Z,16.40
2017-08-10T04:55:43.824Z,17.00
2017-08-10T04:58:11.393Z,18.30
2017-08-10T05:00:39.657Z,24.30
2017-08-10T05:03:07.129Z,25.33
2017-08-10T05:05:35.374Z,22.70
2017-08-10T05:08:02.881Z,20.57
2017-08-10T05:10:30.361Z,20.57
2017-08-10T05:12:57.833Z,21.57
2017-08-10T05:15:25.333Z,28.73
2017-08-10T05:17:53.576Z,27.97
2017-08-10T05:20:21.049Z,21.30
2017-08-10T05:22:48.560Z,21.90
2017-08-10T05:25:16.054Z,22.60
2017-08-10T05:27:43.525Z,27.40
2017-08-10T05:30:11.024Z,20.27
2017-08-10T05:32:38.497Z,20.90
2017-08-10T05:35:05.969Z,22.00
2017-08-10T05:37:33.554Z,23.93
2017-08-10T05:40:01.037Z,21.40
2017-08-10T05:42:29.497Z,23.00
2017-08-10T05:44:56.993Z,21.43
2017-08-10T05:47:24.466Z,19.90
2017-08-10T05:49:51.946Z,23.90
2017-08-10T05:52:19.441Z,24.63
2017-08-10T05:54:47.705Z,27.83
2017-08-10T05:57:15.947Z,21.43
2017-08-10T05:59:43.446Z,19.53
2017-08-10T06:02:11.686Z,25.73
2017-08-10T06:04:39.156Z,24.73
2017-08-10T06:07:06.661Z,25.27
2017-08-10T06:09:34.137Z,26.47
2017-08-10T06:12:01.612Z,34.27
2017-08-10T06:14:29.112Z,28.70
2017-08-10T06:16:57.353Z,44.40
2017-08-10T06:19:24.824Z,28.60
2017-08-10T06:21:52.317Z,33.17
2017-08-10T06:24:19.792Z,28.47
2017-08-10T06:26:47.266Z,34.20
2017-08-10T06:29:14.767Z,35.53
2017-08-10T06:31:42.257Z,34.73
2017-08-10T06:34:09.735Z,25.20
2017-08-10T06:36:37.228Z,41.67
2017-08-10T06:39:04.705Z,25.40
2017-08-10T06:41:32.193Z,23.13
2017-08-10T06:43:59.689Z,18.70
2017-08-10T06:46:27.205Z,30.50
2017-08-10T06:48:54.680Z,19.30
2017-08-10T06:51:22.173Z,30.53
2017-08-10T06:53:49.644Z,17.90
2017-08-10T06:56:17.889Z,17.10
2017-08-10T06:58:45.393Z,15.67
2017-08-10T07:01:12.928Z,16.37
2017-08-10T07:03:41.457Z,21.33
2017-08-10T07:06:08.958Z,14.50
2017-08-10T07:08:36.437Z,14.33
2017-08-10T07:11:04.677Z,14.73
2017-08-10T07:13:32.179Z,12.17
2017-08-10T07:15:59.657Z,13.50
2017-08-10T07:18:27.133Z,15.23
2017-08-10T07:20:54.633Z,12.70
2017-08-10T07:23:22.877Z,15.53
2017-08-10T07:25:50.358Z,16.77
2017-08-10T07:28:18.617Z,14.10
2017-08-10T07:30:46.349Z,22.53
2017-08-10T07:33:14.048Z,17.03
2017-08-10T07:35:41.822Z,17.07
2017-08-10T07:38:09.306Z,17.10
2017-08-10T07:40:36.884Z,16.63
2017-08-10T07:43:04.653Z,15.53
2017-08-10T07:45:32.134Z,16.43
2017-08-10T07:47:59.649Z,16.27
2017-08-10T07:50:27.144Z,18.60
2017-08-10T07:52:54.621Z,23.80
2017-08-10T07:55:22.096Z,14.43
2017-08-10T07:57:50.361Z,16.03
2017-08-10T08:00:17.836Z,13.77
2017-08-10T08:02:46.082Z,13.73
2017-08-10T08:05:13.595Z,15.37
2017-08-10T08:07:41.077Z,13.17
2017-08-10T08:10:08.553Z,15.57
2017-08-10T08:12:36.289Z,15.77
2017-08-10T08:15:03.771Z,21.40
2017-08-10T08:17:31.505Z,16.10
2017-08-10T08:19:59.234Z,16.07
2017-08-10T08:22:27.749Z,17.83
2017-08-10T08:24:55.229Z,20.47
2017-08-10T08:27:22.969Z,17.53
2017-08-10T08:29:50.493Z,15.53
2017-08-10T08:32:18.735Z,12.53
2017-08-10T08:34:46.238Z,18.30
2017-08-10T08:37:13.773Z,21.80
2017-08-10T08:39:41.286Z,13.30
2017-08-10T08:42:08.781Z,20.37
2017-08-10T08:44:36.497Z,15.07
2017-08-10T08:47:03.973Z,12.73
2017-08-10T08:49:31.477Z,14.60
2017-08-10T08:51:59.719Z,14.93
2017-08-10T08:54:27.197Z,13.27
2017-08-10T08:56:55.458Z,14.40
2017-08-10T08:59:22.929Z,11.53
2017-08-10T09:01:51.173Z,12.97
2017-08-10T09:04:18.913Z,12.60
2017-08-10T09:06:46.384Z,10.43
2017-08-10T09:09:13.881Z,10.70
2017-08-10T09:11:42.141Z,10.77
2017-08-10T09:14:09.614Z,10.40
2017-08-10T09:16:37.853Z,10.37
2017-08-10T09:19:05.345Z,9.57
2017-08-10T09:21:33.635Z,10.87
2017-08-10T09:24:01.869Z,10.53
2017-08-10T09:26:29.362Z,10.70
2017-08-10T09:28:57.609Z,20.10
2017-08-10T09:31:25.077Z,9.70
2017-08-10T09:33:53.357Z,9.23
2017-08-10T09:36:21.596Z,9.13
2017-08-10T09:38:49.069Z,8.23
2017-08-10T09:41:17.581Z,9.57
2017-08-10T09:43:45.820Z,8.10
2017-08-10T09:46:13.294Z,8.17
2017-08-10T09:48:40.802Z,7.53
2017-08-10T09:51:08.273Z,7.53
2017-08-10T09:53:35.745Z,8.03
2017-08-10T09:56:03.238Z,6.80
2017-08-10T09:58:31.474Z,5.77
2017-08-10T10:00:59.221Z,7.17
2017-08-10T10:03:26.737Z,8.27
2017-08-10T10:05:54.997Z,8.37
2017-08-10T10:08:22.472Z,7.07
2017-08-10T10:10:50.741Z,7.20
2017-08-10T10:13:18.980Z,7.33
2017-08-10T10:15:46.461Z,6.60
2017-08-10T10:18:14.737Z,7.10
2017-08-10T10:20:42.209Z,6.77
2017-08-10T10:23:10.445Z,5.63
2017-08-10T10:25:37.937Z,5.87
2017-08-10T10:28:06.177Z,5.00
2017-08-10T10:30:33.765Z,4.90
2017-08-10T10:33:01.253Z,4.87
2017-08-10T10:35:28.721Z,5.40
2017-08-10T10:37:56.190Z,6.63
2017-08-10T10:40:23.746Z,4.77
2017-08-10T10:42:51.217Z,4.67
2017-08-10T10:45:18.690Z,5.07
2017-08-10T10:47:46.975Z,4.83
2017-08-10T10:50:15.233Z,4.17
2017-08-10T10:52:42.696Z,3.50
2017-08-10T10:55:10.189Z,2.30
2017-08-10T10:57:38.425Z,2.37
2017-08-10T11:00:05.893Z,1.90
2017-08-10T11:02:33.381Z,2.67
2017-08-10T11:05:01.629Z,2.87
2017-08-10T11:07:29.096Z,2.93
2017-08-10T11:09:56.613Z,2.77
2017-08-10T11:12:24.093Z,2.57
2017-08-10T11:14:51.561Z,3.00
2017-08-10T11:17:19.062Z,28.47
2017-08-10T11:19:46.532Z,2.67
2017-08-10T11:22:14.007Z,2.47
2017-08-10T11:24:41.497Z,1.93
2017-08-10T11:27:09.744Z,2.03
2017-08-10T11:29:37.212Z,3.40
2017-08-10T11:32:04.955Z,4.67
2017-08-10T11:34:32.431Z,1.70
2017-08-10T11:36:59.905Z,1.70
2017-08-10T11:39:27.397Z,2.00
2017-08-10T11:41:54.874Z,2.60
2017-08-10T11:44:22.345Z,2.60
2017-08-10T11:46:49.945Z,2.80
2017-08-10T11:49:18.181Z,2.63
2017-08-10T11:51:45.669Z,3.10
2017-08-10T11:54:13.279Z,3.00
2017-08-10T11:56:40.754Z,2.57
2017-08-10T11:59:08.225Z,2.27
2017-08-10T12:01:35.716Z,1.90
2017-08-10T12:04:03.952Z,2.57
2017-08-10T12:06:31.421Z,1.90
2017-08-10T12:08:58.934Z,2.23
2017-08-10T12:11:26.405Z,2.77
2017-08-10T12:13:53.874Z,2.60
2017-08-10T12:16:21.368Z,6.20
2017-08-10T12:18:49.609Z,2.80
2017-08-10T12:21:17.081Z,2.30
2017-08-10T12:23:44.569Z,2.50
2017-08-10T12:26:12.810Z,1.90
2017-08-10T12:28:40.280Z,2.50
2017-08-10T12:31:07.773Z,3.80
2017-08-10T12:33:35.246Z,2.77
2017-08-10T12:36:02.717Z,2.20
2017-08-10T12:38:30.214Z,2.40
2017-08-10T12:40:57.682Z,2.10
2017-08-10T12:43:25.952Z,1.83
2017-08-10T12:45:54.221Z,1.90
2017-08-10T12:48:21.689Z,2.07
2017-08-10T12:50:49.931Z,2.20
2017-08-10T12:53:17.673Z,5.20
2017-08-10T12:55:45.141Z,2.60
2017-08-10T12:58:12.613Z,2.83
2017-08-10T13:00:40.105Z,2.13
2017-08-10T13:03:08.345Z,2.53
2017-08-10T13:05:35.814Z,2.50
2017-08-10T13:08:03.305Z,2.83
2017-08-10T13:10:30.772Z,3.93
2017-08-10T13:12:58.241Z,3.13
2017-08-10T13:15:25.729Z,3.13
2017-08-10T13:17:53.198Z,2.60
2017-08-10T13:20:20.677Z,3.60
2017-08-10T13:22:48.937Z,3.50
2017-08-10T13:25:16.409Z,2.90
2017-08-10T13:27:44.656Z,2.47
2017-08-10T13:30:12.147Z,2.73
2017-08-10T13:32:40.385Z,1.67
2017-08-10T13:35:07.856Z,2.43
2017-08-10T13:37:35.345Z,2.57
2017-08-10T13:40:02.820Z,2.53
2017-08-10T13:42:31.180Z,2.50
2017-08-10T13:44:58.682Z,3.50
2017-08-10T13:47:26.149Z,3.07
2017-08-10T13:49:53.622Z,3.20
2017-08-10T13:52:21.136Z,3.50
2017-08-10T13:54:48.610Z,2.70
2017-08-10T13:57:16.078Z,3.50
2017-08-10T13:59:43.569Z,3.30
2017-08-10T14:02:11.877Z,4.60
2017-08-10T14:04:39.354Z,2.60
2017-08-10T14:07:06.892Z,2.47
2017-08-10T14:09:34.361Z,2.67
2017-08-10T14:12:01.841Z,3.00
2017-08-10T14:14:29.340Z,2.17
2017-08-10T14:16:56.818Z,2.80
2017-08-10T14:19:24.316Z,9.13
2017-08-10T14:21:51.810Z,3.27
2017-08-10T14:24:19.282Z,2.77
2017-08-10T14:26:46.752Z,2.60
2017-08-10T14:29:14.241Z,2.67
2017-08-10T14:31:41.709Z,3.70
2017-08-10T14:34:09.214Z,2.60
2017-08-10T14:36:36.701Z,2.70
2017-08-10T14:39:04.189Z,4.10
2017-08-10T14:41:31.666Z,3.33
2017-08-10T14:43:59.967Z,2.10
2017-08-10T14:46:27.445Z,2.47
2017-08-10T14:48:54.919Z,3.07
2017-08-10T14:51:22.421Z,2.83
2017-08-10T14:53:49.901Z,2.63
2017-08-10T14:56:17.377Z,1.90
2017-08-10T14:58:44.865Z,2.20
2017-08-10T15:01:12.370Z,2.40
2017-08-10T15:03:39.840Z,2.20
2017-08-10T15:06:07.337Z,2.73
2017-08-10T15:08:34.805Z,2.73
2017-08-10T15:11:03.041Z,3.23
2017-08-10T15:13:30.542Z,2.70
2017-08-10T15:15:58.778Z,2.77
2017-08-10T15:18:26.245Z,3.00
2017-08-10T15:20:53.736Z,3.40
2017-08-10T15:23:22.249Z,3.33
2017-08-10T15:25:49.716Z,3.20
2017-08-10T15:28:17.205Z,3.33
2017-08-10T15:30:44.676Z,2.40
2017-08-10T15:33:12.913Z,3.37
2017-08-10T15:35:40.661Z,4.13
2017-08-10T15:38:08.590Z,3.47
2017-08-10T15:40:36.829Z,3.07
2017-08-10T15:43:04.330Z,5.90
2017-08-10T15:45:32.565Z,2.87
2017-08-10T15:48:00.034Z,5.27
2017-08-10T15:50:27.529Z,4.00
2017-08-10T15:52:55.005Z,3.30
2017-08-10T15:55:22.485Z,6.33
2017-08-10T15:57:49.989Z,2.50
2017-08-10T16:00:17.605Z,7.10
2017-08-10T16:02:45.079Z,4.17
2017-08-10T16:05:12.604Z,2.40
2017-08-10T16:07:40.077Z,4.33
2017-08-10T16:10:07.549Z,3.10
2017-08-10T16:12:35.054Z,4.47
2017-08-10T16:15:02.574Z,3.30
2017-08-10T16:17:30.078Z,5.07
2017-08-10T16:19:57.608Z,2.77
2017-08-10T16:22:25.956Z,4.93
2017-08-10T16:24:53.445Z,3.23
2017-08-10T16:27:21.705Z,4.00
2017-08-10T16:29:49.945Z,3.70
2017-08-10T16:32:17.414Z,8.00
2017-08-10T16:34:44.913Z,2.60
2017-08-10T16:37:12.385Z,5.93
2017-08-10T16:39:39.948Z,3.20
2017-08-10T16:42:07.457Z,4.53
2017-08-10T16:44:35.148Z,3.70
2017-08-10T16:47:03.385Z,3.47
2017-08-10T16:49:30.921Z,4.00
2017-08-10T16:51:58.388Z,2.90
2017-08-10T16:54:25.864Z,9.10
2017-08-10T16:56:53.373Z,3.30
2017-08-10T16:59:21.061Z,3.43
2017-08-10T17:01:48.549Z,3.80
2017-08-10T17:04:16.042Z,3.17
2017-08-10T17:06:43.510Z,3.53
2017-08-10T17:09:10.983Z,3.20
2017-08-10T17:11:38.474Z,3.17
2017-08-10T17:14:05.945Z,3.30
2017-08-10T17:16:34.182Z,3.83
2017-08-10T17:19:01.675Z,5.43
2017-08-10T17:21:29.913Z,4.03
2017-08-10T17:23:57.386Z,3.33
2017-08-10T17:26:24.885Z,4.00
2017-08-10T17:28:52.353Z,4.40
2017-08-10T17:31:20.133Z,5.03
2017-08-10T17:33:47.626Z,3.33
2017-08-10T17:36:15.161Z,4.50
2017-08-10T17:38:42.637Z,3.50
2017-08-10T17:41:10.281Z,3.10
2017-08-10T17:43:37.750Z,4.77
2017-08-10T17:46:05.225Z,4.43
2017-08-10T17:48:32.793Z,7.00
2017-08-10T17:51:01.033Z,4.03
2017-08-10T17:53:28.778Z,4.87
2017-08-10T17:55:56.268Z,3.33
2017-08-10T17:58:23.742Z,5.17
2017-08-10T18:00:51.986Z,3.77
2017-08-10T18:03:19.477Z,5.93
2017-08-10T18:05:47.725Z,4.40
2017-08-10T18:08:15.325Z,5.70
2017-08-10T18:10:42.722Z,4.00
2017-08-10T18:13:10.195Z,4.40
2017-08-10T18:15:37.678Z,5.60
2017-08-10T18:18:05.173Z,5.47
2017-08-10T18:20:32.647Z,5.60
2017-08-10T18:23:00.197Z,4.97
2017-08-10T18:25:27.689Z,7.60
2017-08-10T18:27:55.429Z,4.87
2017-08-10T18:30:22.909Z,5.50
2017-08-10T18:32:50.400Z,5.70
2017-08-10T18:35:18.645Z,5.33
2017-08-10T18:37:46.117Z,16.00
2017-08-10T18:40:13.605Z,5.80
2017-08-10T18:42:41.292Z,5.50
2017-08-10T18:45:08.801Z,6.20
2017-08-10T18:47:37.063Z,6.07
2017-08-10T18:50:04.533Z,5.47
2017-08-10T18:52:32.777Z,6.03
2017-08-10T18:55:00.270Z,5.43
2017-08-10T18:57:28.514Z,6.40
2017-08-10T18:59:55.985Z,5.47
2017-08-10T19:02:23.476Z,5.97
2017-08-10T19:04:50.944Z,5.10
2017-08-10T19:07:18.413Z,6.17
2017-08-10T19:09:45.906Z,6.50
2017-08-10T19:12:13.385Z,5.63
2017-08-10T19:14:41.665Z,14.70
2017-08-10T19:17:10.286Z,6.47
2017-08-10T19:19:37.760Z,6.33
2017-08-10T19:22:05.240Z,10.30
2017-08-10T19:24:32.733Z,10.20
2017-08-10T19:27:00.229Z,6.50
2017-08-10T19:29:27.746Z,4.67
2017-08-10T19:31:55.241Z,6.60
2017-08-10T19:34:22.714Z,6.60
2017-08-10T19:36:50.194Z,8.00
2017-08-10T19:39:17.682Z,6.20
2017-08-10T19:41:45.162Z,6.97
2017-08-10T19:44:12.638Z,7.07
2017-08-10T19:46:40.132Z,6.60
2017-08-10T19:49:08.373Z,6.27
2017-08-10T19:51:35.845Z,8.30
2017-08-10T19:54:03.334Z,7.50
2017-08-10T19:56:31.580Z,7.60
2017-08-10T19:58:59.060Z,9.33
2017-08-10T20:01:27.322Z,10.00
2017-08-10T20:03:54.793Z,8.37
2017-08-10T20:06:23.033Z,8.37
2017-08-10T20:08:50.521Z,7.80
2017-08-10T20:11:18.766Z,6.73
2017-08-10T20:13:46.240Z,7.87
2017-08-10T20:16:13.737Z,8.70
2017-08-10T20:18:41.298Z,7.50
2017-08-10T20:21:08.770Z,7.23
2017-08-10T20:23:36.273Z,7.03
2017-08-10T20:26:03.745Z,6.77
2017-08-10T20:28:31.982Z,8.93
2017-08-10T20:30:59.481Z,14.07
2017-08-10T20:33:27.720Z,8.90
2017-08-10T20:35:55.253Z,8.30
2017-08-10T20:38:22.745Z,8.60
2017-08-10T20:40:50.213Z,9.10
2017-08-10T20:43:17.929Z,11.80
2017-08-10T20:45:45.426Z,8.10
2017-08-10T20:48:12.897Z,10.87
2017-08-10T20:50:41.135Z,8.40
2017-08-10T20:53:08.629Z,12.17
2017-08-10T20:55:36.866Z,9.50
2017-08-10T20:58:04.353Z,10.77
2017-08-10T21:00:31.851Z,11.33
2017-08-10T21:02:59.334Z,21.90
2017-08-10T21:05:26.817Z,11.23
2017-08-10T21:07:54.321Z,10.47
2017-08-10T21:10:22.101Z,10.73
2017-08-10T21:12:49.577Z,11.70
2017-08-10T21:15:17.069Z,10.53
2017-08-10T21:17:45.305Z,10.43
2017-08-10T21:20:12.786Z,15.63
2017-08-10T21:22:40.284Z,12.07
2017-08-10T21:25:07.970Z,12.47
2017-08-10T21:27:35.464Z,11.50
2017-08-10T21:30:02.965Z,12.60
2017-08-10T21:32:30.436Z,12.23
2017-08-10T21:34:57.909Z,14.10
2017-08-10T21:37:25.413Z,11.07
2017-08-10T21:39:53.652Z,14.70
2017-08-10T21:42:21.124Z,12.83
2017-08-10T21:44:48.621Z,14.30
2017-08-10T21:47:16.101Z,14.30
2017-08-10T21:49:43.610Z,12.97
2017-08-10T21:52:11.877Z,13.87
2017-08-10T21:54:39.356Z,16.70
2017-08-10T21:57:07.874Z,15.40
2017-08-10T21:59:35.371Z,14.50
2017-08-10T22:02:02.946Z,16.40
2017-08-10T22:04:31.197Z,18.33
2017-08-10T22:06:58.692Z,14.33
2017-08-10T22:09:26.933Z,16.23
2017-08-10T22:11:54.409Z,15.10
2017-08-10T22:14:22.671Z,17.00
2017-08-10T22:16:50.149Z,16.27
2017-08-10T22:19:18.400Z,30.07
2017-08-10T22:21:45.897Z,19.53
2017-08-10T22:24:13.377Z,17.20
2017-08-10T22:26:40.897Z,16.77
2017-08-10T22:29:09.161Z,18.10
2017-08-10T22:31:37.401Z,15.40
2017-08-10T22:34:04.881Z,19.07
2017-08-10T22:36:32.381Z,24.40
2017-08-10T22:38:59.858Z,16.00
2017-08-10T22:41:27.333Z,18.50
2017-08-10T22:43:55.034Z,18.53
2017-08-10T22:46:23.560Z,18.07
2017-08-10T22:48:51.073Z,15.07
2017-08-10T22:51:19.338Z,14.30
2017-08-10T22:53:46.809Z,14.10
2017-08-10T22:56:15.056Z,14.23
2017-08-10T22:58:42.549Z,25.13
2017-08-10T23:01:10.789Z,16.33
2017-08-10T23:03:38.265Z,17.67
2017-08-10T23:06:05.761Z,15.50
2017-08-10T23:08:33.237Z,20.70
2017-08-10T23:11:00.713Z,14.90
2017-08-10T23:13:28.210Z,15.87
2017-08-10T23:15:56.734Z,14.33
2017-08-10T23:18:24.493Z,15.20
2017-08-10T23:20:51.989Z,22.40
2017-08-10T23:23:19.465Z,19.83
2017-08-10T23:25:46.969Z,15.10
2017-08-10T23:28:14.460Z,21.33
2017-08-10T23:30:41.934Z,21.40
2017-08-10T23:33:10.176Z,14.07
2017-08-10T23:35:37.680Z,19.93
2017-08-10T23:38:05.157Z,15.23
2017-08-10T23:40:32.637Z,12.57
2017-08-10T23:43:00.133Z,14.97
2017-08-10T23:45:28.380Z,16.20
2017-08-10T23:47:55.853Z,17.50
2017-08-10T23:50:23.357Z,18.87
2017-08-10T23:52:50.835Z,14.17
2017-08-10T23:55:19.402Z,15.43
2017-08-10T23:57:47.670Z,12.13
